createdAt,value
2023-02-08T00:02:30.124Z,50.40
2023-02-08T00:06:31.078Z,45.30
2023-02-08T00:10:29.067Z,39.10
2023-02-08T00:14:27.021Z,37.30
2023-02-08T00:18:25.082Z,39.10
2023-02-08T00:22:27.088Z,42.70
2023-02-08T00:26:25.070Z,40.60
2023-02-08T00:30:24.033Z,39.40
2023-02-08T00:34:23.122Z,37.90
2023-02-08T00:38:21.055Z,38.30
2023-02-08T00:42:19.030Z,37.90
2023-02-08T00:46:17.159Z,39.20
2023-02-08T00:50:17.029Z,34.00
2023-02-08T00:54:14.983Z,37.90
2023-02-08T00:58:13.089Z,34.10
2023-02-08T01:02:11.066Z,25.00
2023-02-08T01:06:08.957Z,24.80
2023-02-08T01:10:06.952Z,26.90
2023-02-08T01:14:06.000Z,21.30
2023-02-08T01:18:11.933Z,18.70
2023-02-08T01:22:12.030Z,18.80
2023-02-08T01:30:10.962Z,20.90
2023-02-08T01:34:08.937Z,20.70
2023-02-08T01:38:11.024Z,19.90
2023-02-08T01:42:10.926Z,18.90
2023-02-08T01:46:10.069Z,16.90
2023-02-08T01:50:07.945Z,18.50
2023-02-08T01:54:07.909Z,22.10
2023-02-08T01:58:09.864Z,16.70
2023-02-08T02:02:10.921Z,16.90
2023-02-08T02:06:15.919Z,15.40
2023-02-08T02:10:23.884Z,20.10
2023-02-08T02:14:22.914Z,17.40
2023-02-08T02:18:22.945Z,16.70
2023-02-08T02:22:44.911Z,18.00
2023-02-08T02:27:26.905Z,21.80
2023-02-08T02:31:51.881Z,20.20
2023-02-08T02:36:02.851Z,16.90
2023-02-08T02:40:36.916Z,21.30
2023-02-08T02:44:48.941Z,19.00
2023-02-08T02:49:10.852Z,18.40
2023-02-08T02:53:24.860Z,16.70
2023-02-08T02:57:27.840Z,19.90
2023-02-08T03:01:28.974Z,17.10
2023-02-08T03:05:28.793Z,20.70
2023-02-08T03:10:01.811Z,20.00
2023-02-08T03:14:17.819Z,20.60
2023-02-08T03:18:24.823Z,20.10
2023-02-08T03:22:37.786Z,22.20
2023-02-08T03:26:49.823Z,18.00
2023-02-08T03:31:01.890Z,25.10
2023-02-08T03:35:19.889Z,17.30
2023-02-08T03:39:22.781Z,19.90
2023-02-08T03:43:35.773Z,13.40
2023-02-08T03:47:42.796Z,17.90
2023-02-08T03:51:51.292Z,12.20
2023-02-08T03:55:50.758Z,15.70
2023-02-08T03:59:54.779Z,13.90
2023-02-08T04:04:08.745Z,14.80
2023-02-08T04:08:06.784Z,17.70
2023-02-08T04:12:04.718Z,16.60
2023-02-08T04:16:02.778Z,16.50
2023-02-08T04:20:00.736Z,13.20
2023-02-08T04:23:58.747Z,16.10
2023-02-08T04:27:56.882Z,13.60
2023-02-08T04:31:55.859Z,13.10
2023-02-08T04:35:53.685Z,16.60
2023-02-08T04:39:51.746Z,14.70
2023-02-08T04:43:50.681Z,18.80
2023-02-08T04:47:48.730Z,19.00
2023-02-08T04:51:46.650Z,17.10
2023-02-08T04:55:45.820Z,17.30
2023-02-08T04:59:50.757Z,20.50
2023-02-08T05:03:48.739Z,24.40
2023-02-08T05:07:46.923Z,18.30
2023-02-08T05:11:45.845Z,18.30
2023-02-08T05:15:49.661Z,20.00
2023-02-08T05:19:47.792Z,20.70
2023-02-08T05:23:46.830Z,17.10
2023-02-08T05:27:48.705Z,20.40
2023-02-08T05:31:46.696Z,17.30
2023-02-08T05:35:44.657Z,20.90
2023-02-08T05:39:42.719Z,18.80
2023-02-08T05:43:40.628Z,20.00
2023-02-08T05:47:38.675Z,15.60
2023-02-08T05:51:37.571Z,16.90
2023-02-08T05:55:38.628Z,20.40
2023-02-08T05:59:36.637Z,19.00
2023-02-08T06:03:36.634Z,18.00
2023-02-08T06:07:36.595Z,19.80
2023-02-08T06:11:34.522Z,19.00
2023-02-08T06:15:32.616Z,16.90
2023-02-08T06:19:30.510Z,16.20
2023-02-08T06:23:28.545Z,15.90
2023-02-08T06:27:27.575Z,14.80
2023-02-08T06:31:25.617Z,16.20
2023-02-08T06:35:23.542Z,11.80
2023-02-08T06:39:24.754Z,10.50
2023-02-08T06:43:15.709Z,15.50
2023-02-08T06:47:13.527Z,18.20
2023-02-08T06:51:11.461Z,13.40
2023-02-08T06:55:09.541Z,16.00
2023-02-08T06:59:07.480Z,13.10
2023-02-08T07:02:47.410Z,11.80
2023-02-08T07:06:19.242Z,13.30
2023-02-08T07:09:44.297Z,14.50
2023-02-08T07:13:08.402Z,13.70
2023-02-08T07:16:32.626Z,15.80
2023-02-08T07:19:57.116Z,14.80
2023-02-08T07:23:21.201Z,16.20
2023-02-08T07:26:45.075Z,17.60
2023-02-08T07:30:10.115Z,18.00
2023-02-08T07:33:34.275Z,16.20
2023-02-08T07:36:58.291Z,18.50
2023-02-08T07:40:22.340Z,19.40
2023-02-08T07:43:46.499Z,18.60
2023-02-08T07:47:11.028Z,14.80
2023-02-08T07:50:35.210Z,19.60
2023-02-08T07:53:59.266Z,18.90
2023-02-08T07:57:24.809Z,16.20
2023-02-08T08:00:48.605Z,17.90
2023-02-08T08:04:14.107Z,20.00
2023-02-08T08:07:38.494Z,21.10
2023-02-08T08:11:03.876Z,23.50
2023-02-08T08:14:28.201Z,20.30
2023-02-08T08:17:52.126Z,21.60
2023-02-08T08:21:17.862Z,15.80
2023-02-08T08:24:42.127Z,19.00
2023-02-08T08:28:07.512Z,16.10
2023-02-08T08:31:32.060Z,16.40
2023-02-08T08:34:56.092Z,17.10
2023-02-08T08:38:19.997Z,17.40
2023-02-08T08:41:43.981Z,20.70
2023-02-08T08:45:09.499Z,19.00
2023-02-08T08:48:35.536Z,17.80
2023-02-08T08:51:59.721Z,17.00
2023-02-08T08:55:23.608Z,21.50
2023-02-08T08:58:47.548Z,22.20
2023-02-08T09:02:17.878Z,17.90
2023-02-08T09:05:42.475Z,21.70
2023-02-08T09:09:07.311Z,22.90
2023-02-08T09:12:31.466Z,21.90
2023-02-08T09:15:55.293Z,28.80
2023-02-08T09:19:19.309Z,29.10
2023-02-08T09:22:43.204Z,27.80
2023-02-08T09:26:09.702Z,26.10
2023-02-08T09:29:34.469Z,28.40
2023-02-08T09:32:58.439Z,25.40
2023-02-08T09:36:25.692Z,24.50
2023-02-08T09:39:49.677Z,27.90
2023-02-08T09:43:27.649Z,22.90
2023-02-08T09:47:30.643Z,25.30
2023-02-08T09:51:04.171Z,29.40
2023-02-08T09:54:37.531Z,24.00
2023-02-08T09:58:05.854Z,18.70
2023-02-08T10:01:34.003Z,21.50
2023-02-08T10:05:11.649Z,11.60
2023-02-08T10:08:37.262Z,18.40
2023-02-08T10:12:13.120Z,17.10
2023-02-08T10:15:48.708Z,15.10
2023-02-08T10:19:28.418Z,15.80
2023-02-08T10:23:15.866Z,17.90
2023-02-08T10:26:47.520Z,16.20
2023-02-08T10:30:30.770Z,13.70
2023-02-08T10:34:07.472Z,15.10
2023-02-08T10:37:35.601Z,18.10
2023-02-08T10:41:02.636Z,20.20
2023-02-08T10:44:55.706Z,17.60
2023-02-08T10:48:33.116Z,17.80
2023-02-08T10:51:58.247Z,17.50
2023-02-08T10:55:22.772Z,18.30
2023-02-08T10:58:46.864Z,20.70
2023-02-08T11:02:23.764Z,20.00
2023-02-08T11:05:47.808Z,19.30
2023-02-08T11:09:32.230Z,20.70
2023-02-08T11:13:19.315Z,20.40
2023-02-08T11:16:44.117Z,21.30
2023-02-08T11:20:09.621Z,23.00
2023-02-08T11:23:37.374Z,23.80
2023-02-08T11:27:02.661Z,24.40
2023-02-08T11:30:26.930Z,25.20
2023-02-08T11:34:20.518Z,23.40
2023-02-08T11:37:58.532Z,22.30
2023-02-08T11:41:23.700Z,18.60
2023-02-08T11:44:48.947Z,18.20
2023-02-08T11:48:31.697Z,20.50
2023-02-08T11:51:56.457Z,19.30
2023-02-08T11:55:20.710Z,22.20
2023-02-08T11:58:58.091Z,22.20
2023-02-08T12:02:40.099Z,25.20
2023-02-08T12:06:29.042Z,23.30
2023-02-08T12:10:14.072Z,25.70
2023-02-08T12:13:55.299Z,24.80
2023-02-08T12:17:44.054Z,26.00
2023-02-08T12:21:29.613Z,27.40
2023-02-08T12:25:19.577Z,27.70
2023-02-08T12:29:05.057Z,23.10
2023-02-08T12:32:59.300Z,18.20
2023-02-08T12:37:25.213Z,23.00
2023-02-08T12:41:15.060Z,21.10
2023-02-08T12:44:48.833Z,24.50
2023-02-08T12:48:31.865Z,28.90
2023-02-08T12:52:22.803Z,22.20
2023-02-08T12:55:50.002Z,23.40
2023-02-08T12:59:35.428Z,24.50
2023-02-08T13:03:27.092Z,24.00
2023-02-08T13:06:59.786Z,23.40
2023-02-08T13:10:32.742Z,24.80
2023-02-08T13:14:05.830Z,24.00
2023-02-08T13:17:37.705Z,30.60
2023-02-08T13:21:08.094Z,28.60
2023-02-08T13:24:40.969Z,27.40
2023-02-08T13:28:20.368Z,30.40
2023-02-08T13:31:49.725Z,28.80
2023-02-08T13:35:30.305Z,25.80
2023-02-08T13:38:55.059Z,30.00
2023-02-08T13:42:31.942Z,27.90
2023-02-08T13:46:00.500Z,28.40
2023-02-08T13:49:55.498Z,24.50
2023-02-08T13:53:41.812Z,28.70
2023-02-08T13:57:44.520Z,30.90
2023-02-08T14:01:13.111Z,32.90
2023-02-08T14:04:39.207Z,27.10
2023-02-08T14:08:06.156Z,26.90
2023-02-08T14:11:43.606Z,27.60
2023-02-08T14:15:16.426Z,26.10
2023-02-08T14:18:40.775Z,28.50
2023-02-08T14:22:18.380Z,25.30
2023-02-08T14:25:49.111Z,25.20
2023-02-08T14:29:24.180Z,26.70
2023-02-08T14:33:19.972Z,28.10
2023-02-08T14:37:25.939Z,27.10
2023-02-08T14:41:23.921Z,29.60
2023-02-08T14:45:50.885Z,26.00
2023-02-08T14:49:55.862Z,29.50
2023-02-08T14:53:57.007Z,28.90
2023-02-08T14:57:55.883Z,31.20
2023-02-08T15:02:02.889Z,36.40
2023-02-08T15:06:21.807Z,34.50
2023-02-08T15:10:26.936Z,35.40
2023-02-08T15:14:33.833Z,30.50
2023-02-08T15:18:38.833Z,27.90
2023-02-08T15:22:38.848Z,31.40
2023-02-08T15:26:37.902Z,28.40
2023-02-08T15:30:44.113Z,29.70
2023-02-08T15:34:42.835Z,31.30
2023-02-08T15:38:40.799Z,39.60
2023-02-08T15:42:41.806Z,39.10
2023-02-08T15:46:41.870Z,42.50
2023-02-08T15:50:40.886Z,44.90
2023-02-08T15:54:40.805Z,50.40
2023-02-08T15:58:52.822Z,54.30
2023-02-08T16:02:51.783Z,49.80
2023-02-08T16:06:54.919Z,53.50
2023-02-08T16:11:00.882Z,50.30
2023-02-08T16:14:58.858Z,53.10
2023-02-08T16:18:59.805Z,52.70
2023-02-08T16:23:10.733Z,54.90
2023-02-08T16:27:14.912Z,57.60
2023-02-08T16:31:19.994Z,53.10
2023-02-08T16:35:40.899Z,59.40
2023-02-08T16:39:53.768Z,61.10
2023-02-08T16:43:56.693Z,63.20
2023-02-08T16:48:01.915Z,71.80
2023-02-08T16:52:04.736Z,65.90
2023-02-08T16:56:02.819Z,63.60
2023-02-08T17:00:03.735Z,59.40
2023-02-08T17:04:01.824Z,68.60
2023-02-08T17:08:00.745Z,60.80
2023-02-08T17:11:59.715Z,66.80
2023-02-08T17:15:57.888Z,70.10
2023-02-08T17:19:57.876Z,75.10
2023-02-08T17:23:56.673Z,76.20
2023-02-08T17:27:54.696Z,81.30
2023-02-08T17:31:56.588Z,81.00
2023-02-08T17:35:54.654Z,89.90
2023-02-08T17:39:52.785Z,91.50
2023-02-08T17:43:50.758Z,98.70
2023-02-08T17:47:49.749Z,106.80
2023-02-08T17:51:47.640Z,103.40
2023-02-08T17:55:46.203Z,103.00
2023-02-08T17:59:44.707Z,107.00
2023-02-08T18:03:42.817Z,100.10
2023-02-08T18:07:40.654Z,108.30
2023-02-08T18:11:38.627Z,99.60
2023-02-08T18:15:39.762Z,105.90
2023-02-08T18:19:37.685Z,114.70
2023-02-08T18:23:35.652Z,124.40
2023-02-08T18:27:33.550Z,127.40
2023-02-08T18:31:33.694Z,122.80
2023-02-08T18:35:31.579Z,119.90
2023-02-08T18:39:29.620Z,119.00
2023-02-08T18:43:27.676Z,119.60
2023-02-08T18:47:25.788Z,99.90
2023-02-08T18:51:27.620Z,112.60
2023-02-08T18:55:25.620Z,90.80
2023-02-08T18:59:23.593Z,88.40
2023-02-08T19:03:24.686Z,78.40
2023-02-08T19:07:22.655Z,79.70
2023-02-08T19:11:29.620Z,78.60
2023-02-08T19:15:27.696Z,81.50
2023-02-08T19:19:25.582Z,83.40
2023-02-08T19:23:23.553Z,84.50
2023-02-08T19:27:21.746Z,85.90
2023-02-08T19:31:27.674Z,85.00
2023-02-08T19:35:26.544Z,74.00
2023-02-08T19:39:28.522Z,88.40
2023-02-08T19:43:26.723Z,82.40
2023-02-08T19:47:32.327Z,76.20
2023-02-08T19:51:37.501Z,75.00
2023-02-08T19:55:35.665Z,93.90
2023-02-08T19:59:38.545Z,87.60
2023-02-08T20:03:36.671Z,81.70
2023-02-08T20:07:34.625Z,85.90
2023-02-08T20:11:45.041Z,83.10
2023-02-08T20:15:53.439Z,82.00
2023-02-08T20:19:53.426Z,85.40
2023-02-08T20:23:51.448Z,91.10
2023-02-08T20:27:51.001Z,83.90
2023-02-08T20:31:50.872Z,91.70
2023-02-08T20:35:51.430Z,87.20
2023-02-08T20:39:50.401Z,94.50
2023-02-08T20:43:49.365Z,94.50
2023-02-08T20:47:52.502Z,98.60
2023-02-08T20:51:50.433Z,89.40
2023-02-08T20:55:48.428Z,82.30
2023-02-08T20:59:47.451Z,86.30
2023-02-08T21:03:45.431Z,81.10
2023-02-08T21:07:47.416Z,95.70
2023-02-08T21:11:46.503Z,72.80
2023-02-08T21:15:44.338Z,82.20
2023-02-08T21:19:44.326Z,86.50
2023-02-08T21:23:42.398Z,79.00
2023-02-08T21:27:40.412Z,76.80
2023-02-08T21:31:39.403Z,75.80
2023-02-08T21:35:38.416Z,72.40
2023-02-08T21:39:36.425Z,71.60
2023-02-08T21:43:34.310Z,85.30
2023-02-08T21:47:32.301Z,92.00
2023-02-08T21:51:48.322Z,83.10
2023-02-08T21:55:46.279Z,75.60
2023-02-08T21:59:46.336Z,73.30
2023-02-08T22:03:44.259Z,86.60
2023-02-08T22:07:43.293Z,97.00
2023-02-08T22:11:41.247Z,119.20
2023-02-08T22:15:41.259Z,126.00
2023-02-08T22:19:39.241Z,99.50
2023-02-08T22:23:37.212Z,107.30
2023-02-08T22:27:36.199Z,94.50
2023-02-08T22:31:34.530Z,98.40
2023-02-08T22:35:34.177Z,101.20
2023-02-08T22:39:32.298Z,109.70
2023-02-08T22:43:30.325Z,103.70
2023-02-08T22:47:28.208Z,98.20
2023-02-08T22:51:30.179Z,96.10
2023-02-08T22:55:28.198Z,95.40
2023-02-08T22:59:28.487Z,86.70
2023-02-08T23:03:27.258Z,84.80
2023-02-08T23:07:25.141Z,98.90
2023-02-08T23:11:25.271Z,85.00
2023-02-08T23:15:25.216Z,76.40
2023-02-08T23:19:27.401Z,90.00
2023-02-08T23:23:25.130Z,80.20
2023-02-08T23:27:23.139Z,85.10
2023-02-08T23:31:22.324Z,82.30
2023-02-08T23:35:20.225Z,96.90
2023-02-08T23:39:18.200Z,114.90
2023-02-08T23:43:18.130Z,140.40
2023-02-08T23:47:16.123Z,156.60
2023-02-08T23:51:22.136Z,149.50
2023-02-08T23:55:21.558Z,142.00
2023-02-08T23:59:19.166Z,129.60
